Time;durP1;ratioP1;P1;durP2;ratioP2;P2;SDS_P1;SDS_P2;PMS_P1;PMS_P2;Temp;Humidity;BMP_temperature;BMP_pressure;BME280_temperature;BME280_humidity;BME280_pressure;Samples;Min_cycle;Max_cycle;Signal;HPM_P1;HPM_P2
2022/05/08 00:01:59;;;;;;;7.22;5.65;;;11.10;99.90;;;;;;5099311;28;20023;-85
2022/05/08 00:04:25;;;;;;;7.30;4.15;;;11.10;99.90;;;;;;5099385;28;20020;-84
2022/05/08 00:06:50;;;;;;;4.85;3.60;;;11.10;99.90;;;;;;5099232;28;20101;-85
2022/05/08 00:09:16;;;;;;;5.40;4.07;;;11.10;99.90;;;;;;5117256;28;20070;-85
2022/05/08 00:11:42;;;;;;;6.07;4.25;;;11.10;99.90;;;;;;5099151;28;20027;-85
2022/05/08 00:14:08;;;;;;;5.65;4.00;;;11.10;99.90;;;;;;5099417;28;20380;-85
2022/05/08 00:16:34;;;;;;;6.15;4.10;;;11.10;99.90;;;;;;5099001;28;20103;-85
2022/05/08 00:19:00;;;;;;;5.05;3.80;;;11.10;99.90;;;;;;5117275;28;20102;-85
2022/05/08 00:21:26;;;;;;;8.30;4.93;;;11.10;99.90;;;;;;5098985;28;20426;-85
2022/05/08 00:23:52;;;;;;;7.80;4.30;;;11.10;99.90;;;;;;5117573;28;20023;-85
2022/05/08 00:26:19;;;;;;;5.95;4.50;;;11.00;99.90;;;;;;5098840;28;20084;-85
2022/05/08 00:28:45;;;;;;;5.95;4.13;;;11.00;99.90;;;;;;5098774;28;20434;-85
2022/05/08 00:31:11;;;;;;;5.85;3.80;;;11.00;99.90;;;;;;5117047;28;20020;-85
2022/05/08 00:33:38;;;;;;;5.00;3.60;;;11.10;99.90;;;;;;5098572;28;20055;-85
2022/05/08 00:36:05;;;;;;;4.63;3.50;;;11.10;99.90;;;;;;5116905;28;20023;-85
2022/05/08 00:38:31;;;;;;;5.35;3.72;;;11.10;99.90;;;;;;5098658;28;20499;-85
2022/05/08 00:40:57;;;;;;;4.65;3.70;;;11.10;99.90;;;;;;5098633;28;20032;-85
2022/05/08 00:43:28;;;;;;;5.65;3.60;;;11.10;99.90;;;;;;5098452;28;20084;-85
2022/05/08 00:45:55;;;;;;;5.63;4.25;;;11.10;99.90;;;;;;5098467;28;20115;-85
2022/05/08 00:48:21;;;;;;;7.47;4.63;;;11.10;99.90;;;;;;5098321;28;20020;-85
2022/05/08 00:50:46;;;;;;;6.70;5.10;;;11.10;99.90;;;;;;5115305;28;20031;-84
2022/05/08 00:53:12;;;;;;;7.82;5.18;;;11.10;99.90;;;;;;5098260;28;20019;-84
2022/05/08 00:55:38;;;;;;;7.28;5.10;;;11.10;99.90;;;;;;5116693;28;20115;-85
2022/05/08 00:58:05;;;;;;;6.65;4.85;;;11.10;99.90;;;;;;5098347;28;20024;-85
2022/05/08 01:00:31;;;;;;;6.43;4.18;;;11.00;99.90;;;;;;5098178;28;20039;-85
2022/05/08 01:02:57;;;;;;;6.00;4.45;;;11.00;99.90;;;;;;5097954;28;20020;-85
2022/05/08 01:05:23;;;;;;;5.10;3.75;;;11.00;99.90;;;;;;5098841;28;20034;-85
2022/05/08 01:07:52;;;;;;;6.60;4.68;;;10.90;99.90;;;;;;5098865;28;20036;-85
2022/05/08 01:10:18;;;;;;;6.80;4.78;;;10.90;99.90;;;;;;5098901;28;20084;-84
2022/05/08 01:12:44;;;;;;;6.00;4.40;;;10.90;99.90;;;;;;5098287;28;20020;-84
2022/05/08 01:15:15;;;;;;;7.07;4.97;;;10.90;99.90;;;;;;5097946;28;20032;-85
2022/05/08 01:17:41;;;;;;;6.28;4.50;;;10.90;99.90;;;;;;5116314;28;20026;-85
2022/05/08 01:20:08;;;;;;;6.45;4.43;;;10.90;99.90;;;;;;5097996;28;20036;-85
2022/05/08 01:22:33;;;;;;;5.55;4.30;;;10.90;99.90;;;;;;5116273;28;20059;-85
2022/05/08 01:25:00;;;;;;;6.68;4.50;;;10.90;99.90;;;;;;5097824;28;20066;-85
2022/05/08 01:27:26;;;;;;;7.40;4.03;;;10.90;99.90;;;;;;5097676;28;20027;-85
2022/05/08 01:29:52;;;;;;;5.13;3.85;;;10.90;99.90;;;;;;5116258;28;20491;-85
2022/05/08 01:32:19;;;;;;;6.10;4.47;;;11.00;99.90;;;;;;5097791;28;20028;-85
2022/05/08 01:34:44;;;;;;;8.60;4.28;;;11.00;99.90;;;;;;5097745;28;20020;-85
2022/05/08 01:37:10;;;;;;;6.45;4.25;;;11.00;99.90;;;;;;5097552;28;20385;-85
2022/05/08 01:39:36;;;;;;;5.57;4.10;;;11.00;99.90;;;;;;5098045;28;20028;-85
2022/05/08 01:42:04;;;;;;;4.90;3.75;;;11.00;99.90;;;;;;5115994;28;20462;-85
2022/05/08 01:44:30;;;;;;;5.55;3.28;;;11.00;99.90;;;;;;5115614;28;20024;-85
2022/05/08 01:49:40;;;;;;;5.85;3.70;;;11.10;99.90;;;;;;5115778;28;20124;-85
2022/05/08 01:52:07;;;;;;;5.18;3.85;;;11.10;99.90;;;;;;5097106;28;20106;-85
2022/05/08 01:54:32;;;;;;;5.20;3.75;;;11.10;99.90;;;;;;5097093;28;20024;-85
2022/05/08 01:56:58;;;;;;;5.55;3.72;;;11.10;99.90;;;;;;5097221;28;20030;-85
2022/05/08 01:59:24;;;;;;;5.93;3.60;;;11.10;99.90;;;;;;5115440;28;20025;-85
2022/05/08 02:01:50;;;;;;;5.25;3.45;;;11.10;99.90;;;;;;5097108;28;20058;-85
2022/05/08 02:04:16;;;;;;;5.72;3.90;;;11.10;99.90;;;;;;5115235;28;20080;-85
2022/05/08 02:06:42;;;;;;;5.10;3.83;;;11.10;99.90;;;;;;5115402;28;20491;-85
2022/05/08 02:09:08;;;;;;;4.82;3.65;;;11.10;99.90;;;;;;5096818;28;20028;-85
2022/05/08 02:11:34;;;;;;;4.90;3.33;;;11.10;99.90;;;;;;5096893;28;20110;-85
2022/05/08 02:14:00;;;;;;;4.40;3.20;;;11.10;99.90;;;;;;5096807;28;20064;-85
2022/05/08 02:16:26;;;;;;;4.38;3.58;;;11.10;99.90;;;;;;5096711;28;20024;-85
2022/05/08 02:18:51;;;;;;;5.28;3.58;;;11.10;99.90;;;;;;5096793;28;20111;-85
2022/05/08 02:21:17;;;;;;;4.35;3.25;;;11.10;99.90;;;;;;5096635;28;20057;-85
2022/05/08 02:23:43;;;;;;;4.97;3.58;;;11.10;99.90;;;;;;5096655;28;20066;-85
2022/05/08 02:26:09;;;;;;;6.03;4.32;;;11.00;99.90;;;;;;5096513;28;20437;-85
2022/05/08 02:28:34;;;;;;;6.22;4.35;;;11.00;99.90;;;;;;5096851;28;20026;-85
2022/05/08 02:31:00;;;;;;;7.50;4.90;;;11.00;99.90;;;;;;5114971;28;20099;-85
2022/05/08 02:33:26;;;;;;;6.65;4.78;;;11.00;99.90;;;;;;5114691;28;20024;-85
2022/05/08 02:35:51;;;;;;;6.63;4.68;;;10.90;99.90;;;;;;5114623;28;20023;-85
2022/05/08 02:38:17;;;;;;;8.50;5.72;;;10.90;99.90;;;;;;5096390;28;20020;-85
2022/05/08 02:40:43;;;;;;;6.82;5.30;;;10.80;99.90;;;;;;5096358;28;20024;-85
2022/05/08 02:43:09;;;;;;;6.65;4.82;;;10.80;99.90;;;;;;5114400;28;20036;-85
2022/05/08 02:45:34;;;;;;;8.45;5.63;;;10.80;99.90;;;;;;5096220;28;20458;-85
2022/05/08 02:48:00;;;;;;;8.93;5.95;;;10.80;99.90;;;;;;5096216;28;20368;-85
2022/05/08 02:50:26;;;;;;;10.63;6.32;;;10.80;99.90;;;;;;5096065;28;20026;-85
2022/05/08 02:52:52;;;;;;;9.40;6.78;;;10.80;99.90;;;;;;5114645;28;20023;-85
2022/05/08 03:00:47;;;;;;;8.80;6.43;;;10.80;99.90;;;;;;5114575;28;20034;-85
2022/05/08 03:03:14;;;;;;;8.50;5.93;;;10.70;99.90;;;;;;5114209;28;20475;-85
2022/05/08 03:05:47;;;;;;;8.63;5.85;;;10.70;99.90;;;;;;5114068;28;20038;-85
2022/05/08 03:08:17;;;;;;;11.82;6.60;;;10.70;99.90;;;;;;5095962;28;20038;-85
2022/05/08 03:13:37;;;;;;;7.32;5.13;;;10.70;99.90;;;;;;5113731;28;20034;-85
2022/05/08 03:16:08;;;;;;;7.68;5.35;;;10.70;99.90;;;;;;5095694;28;20023;-85
2022/05/08 03:18:38;;;;;;;8.30;5.53;;;10.70;99.90;;;;;;5095786;28;20559;-85
2022/05/08 03:21:08;;;;;;;8.63;4.85;;;10.70;99.90;;;;;;5095736;28;20081;-85
2022/05/08 03:23:35;;;;;;;7.00;4.50;;;10.80;99.90;;;;;;5095776;28;20096;-85
2022/05/08 03:26:02;;;;;;;6.13;4.30;;;10.80;99.90;;;;;;5113958;28;20104;-85
2022/05/08 03:28:28;;;;;;;6.70;4.73;;;10.80;99.90;;;;;;5095668;28;20024;-85
2022/05/08 03:30:54;;;;;;;7.05;4.60;;;10.80;99.90;;;;;;5095449;28;20023;-85
2022/05/08 03:33:19;;;;;;;6.50;4.35;;;10.80;99.90;;;;;;5095785;28;20020;-85
2022/05/08 03:35:45;;;;;;;6.03;4.60;;;10.80;99.90;;;;;;5095709;28;20016;-85
2022/05/08 03:38:11;;;;;;;7.88;4.35;;;10.80;99.90;;;;;;5095578;28;20085;-85
2022/05/08 03:40:37;;;;;;;6.03;4.07;;;10.70;99.90;;;;;;5095603;28;20107;-85
2022/05/08 03:43:03;;;;;;;5.63;4.10;;;10.80;99.90;;;;;;5095403;28;20047;-85
2022/05/08 03:45:29;;;;;;;7.05;4.22;;;10.80;99.90;;;;;;5095582;28;20484;-85
2022/05/08 03:47:56;;;;;;;6.15;4.20;;;10.80;99.90;;;;;;5095593;28;20115;-85
2022/05/08 03:50:22;;;;;;;5.68;3.95;;;10.80;99.90;;;;;;5095420;28;20102;-85
2022/05/08 03:52:48;;;;;;;5.60;4.05;;;10.70;99.90;;;;;;5095545;28;20495;-85
2022/05/08 03:55:18;;;;;;;6.15;4.05;;;10.70;99.90;;;;;;5113732;28;20016;-85
2022/05/08 03:57:44;;;;;;;5.30;3.88;;;10.80;99.90;;;;;;5095457;28;20377;-85
2022/05/08 04:00:11;;;;;;;6.30;4.47;;;10.80;99.90;;;;;;5095341;28;20023;-85
2022/05/08 04:02:38;;;;;;;7.53;4.28;;;10.80;99.90;;;;;;5095193;28;20055;-85
2022/05/08 04:05:05;;;;;;;5.65;4.10;;;10.80;99.90;;;;;;5095355;28;20020;-86
2022/05/08 04:07:31;;;;;;;7.07;4.35;;;10.80;99.90;;;;;;5095316;28;20114;-85
2022/05/08 04:09:58;;;;;;;5.30;4.03;;;10.80;99.90;;;;;;5095294;28;20028;-85
2022/05/08 04:12:25;;;;;;;5.30;3.85;;;10.80;99.90;;;;;;5095001;28;20027;-85
2022/05/08 04:14:50;;;;;;;4.80;3.60;;;10.80;99.90;;;;;;5094686;28;20016;-85
2022/05/08 04:17:16;;;;;;;5.47;3.95;;;10.80;99.90;;;;;;5093990;28;20023;-85
2022/05/08 04:19:42;;;;;;;5.70;4.10;;;10.90;99.90;;;;;;5095349;28;20380;-85
2022/05/08 04:24:53;;;;;;;6.85;4.53;;;10.80;99.90;;;;;;5114696;28;20086;-82
2022/05/08 04:27:19;;;;;;;7.97;4.70;;;10.90;99.90;;;;;;5117271;28;20066;-82
2022/05/08 04:29:45;;;;;;;6.63;4.20;;;10.90;99.90;;;;;;5098998;28;20061;-81
2022/05/08 04:32:11;;;;;;;5.68;4.30;;;10.90;99.90;;;;;;5117151;28;20095;-82
2022/05/08 04:34:37;;;;;;;5.70;4.07;;;10.90;99.90;;;;;;5117252;28;20075;-82
2022/05/08 04:37:03;;;;;;;6.05;4.20;;;10.80;99.90;;;;;;5117048;28;20102;-82
2022/05/08 04:39:29;;;;;;;5.47;4.13;;;10.80;99.90;;;;;;5117382;28;20391;-82
2022/05/08 04:41:55;;;;;;;5.78;3.95;;;10.90;99.90;;;;;;5098885;28;20030;-82
2022/05/08 04:44:21;;;;;;;7.45;4.55;;;10.90;99.90;;;;;;5116643;28;20533;-82
2022/05/08 04:46:47;;;;;;;6.63;4.50;;;10.90;99.90;;;;;;5099021;28;20027;-81
2022/05/08 04:49:13;;;;;;;5.15;4.15;;;10.90;99.90;;;;;;5116663;28;20027;-81
2022/05/08 04:51:39;;;;;;;6.43;4.40;;;10.90;99.90;;;;;;5098473;28;20028;-82
2022/05/08 04:54:05;;;;;;;6.63;4.10;;;10.90;99.90;;;;;;5098363;28;20467;-82
2022/05/08 04:56:31;;;;;;;6.65;4.13;;;10.80;99.90;;;;;;5117499;28;20016;-82
2022/05/08 04:58:57;;;;;;;6.00;4.00;;;10.90;99.90;;;;;;5117365;28;20032;-82
2022/05/08 05:01:23;;;;;;;9.48;4.82;;;10.90;99.90;;;;;;5098243;28;20491;-82
2022/05/08 05:03:50;;;;;;;5.55;3.88;;;10.80;99.90;;;;;;5116502;28;20023;-82
2022/05/08 05:06:15;;;;;;;7.97;3.78;;;10.80;99.90;;;;;;5098116;28;20069;-82
2022/05/08 05:08:41;;;;;;;4.60;3.60;;;10.90;99.90;;;;;;5116310;28;20098;-82
2022/05/08 05:11:10;;;;;;;5.32;3.38;;;10.90;99.90;;;;;;5098329;28;20108;-82
2022/05/08 05:13:37;;;;;;;5.72;3.80;;;10.90;99.90;;;;;;5097899;28;20020;-82
2022/05/08 05:16:05;;;;;;;5.28;3.92;;;10.90;99.90;;;;;;5116478;28;20026;-82
2022/05/08 05:18:31;;;;;;;6.13;3.92;;;10.90;99.90;;;;;;5116185;28;20023;-82
2022/05/08 05:20:56;;;;;;;5.53;4.13;;;10.90;99.90;;;;;;5097799;28;20482;-82
2022/05/08 05:23:22;;;;;;;5.70;3.95;;;10.90;99.90;;;;;;5116374;28;20020;-82
2022/05/08 05:25:49;;;;;;;6.65;3.72;;;10.90;99.90;;;;;;5116027;28;20072;-82
2022/05/08 05:28:15;;;;;;;7.88;4.50;;;10.90;99.90;;;;;;5097772;28;20022;-82
2022/05/08 05:30:41;;;;;;;10.52;4.30;;;10.90;99.90;;;;;;5098635;28;20088;-82
2022/05/08 05:33:15;;;;;;;5.35;4.00;;;10.90;99.90;;;;;;5115932;28;20438;-82
2022/05/08 05:35:44;;;;;;;4.68;3.70;;;10.90;99.90;;;;;;5097557;28;20020;-82
2022/05/08 05:38:10;;;;;;;4.47;3.33;;;10.90;99.90;;;;;;5096877;28;20030;-81
2022/05/08 05:40:35;;;;;;;5.78;3.35;;;11.00;99.90;;;;;;5115855;28;20382;-82
2022/05/08 05:43:01;;;;;;;5.55;3.90;;;11.10;99.90;;;;;;5115650;28;20027;-82
2022/05/08 05:45:27;;;;;;;5.25;3.85;;;11.10;99.90;;;;;;5116113;28;20035;-82
2022/05/08 05:47:53;;;;;;;5.35;4.22;;;11.10;99.90;;;;;;5115953;28;20035;-82
2022/05/08 05:50:21;;;;;;;5.40;3.83;;;11.20;99.90;;;;;;5097433;28;20024;-82
2022/05/08 05:52:47;;;;;;;5.28;4.07;;;11.20;99.90;;;;;;5115612;28;20027;-82
2022/05/08 05:55:13;;;;;;;5.60;4.13;;;11.30;99.90;;;;;;5115443;28;20024;-82
2022/05/08 05:57:39;;;;;;;5.15;3.90;;;11.30;99.90;;;;;;5115380;28;20030;-82
2022/05/08 06:00:08;;;;;;;5.65;4.28;;;11.30;99.90;;;;;;5115582;28;20020;-82
2022/05/08 06:02:34;;;;;;;5.28;3.42;;;11.40;99.90;;;;;;5115370;28;20030;-82
2022/05/08 06:04:59;;;;;;;4.75;3.50;;;11.40;99.90;;;;;;5115417;28;20020;-82
2022/05/08 06:07:25;;;;;;;4.85;3.65;;;11.50;99.90;;;;;;5115429;28;20023;-82
2022/05/08 06:09:51;;;;;;;6.03;3.88;;;11.50;99.90;;;;;;5115193;28;20020;-82
2022/05/08 06:12:17;;;;;;;4.30;3.00;;;11.60;99.90;;;;;;5115255;28;20019;-82
2022/05/08 06:14:43;;;;;;;6.13;3.90;;;11.60;99.90;;;;;;5115405;28;20024;-82
2022/05/08 06:17:08;;;;;;;4.65;3.55;;;11.60;99.90;;;;;;5115305;28;20613;-82
2022/05/08 06:19:34;;;;;;;4.53;3.15;;;11.70;99.90;;;;;;5115452;28;20027;-82
2022/05/08 06:22:00;;;;;;;6.15;4.28;;;11.70;99.90;;;;;;5115308;28;20023;-82
2022/05/08 06:24:25;;;;;;;4.97;3.97;;;11.80;99.90;;;;;;5115361;28;20072;-82
2022/05/08 06:26:51;;;;;;;6.05;3.60;;;11.80;99.90;;;;;;5114844;28;20031;-82
2022/05/08 06:29:17;;;;;;;5.80;3.63;;;11.80;99.90;;;;;;5115233;28;20425;-82
2022/05/08 06:31:46;;;;;;;6.60;3.72;;;11.90;99.90;;;;;;5096475;28;20028;-82
2022/05/08 06:34:12;;;;;;;6.35;4.28;;;12.00;99.90;;;;;;5115106;28;20545;-82
2022/05/08 06:36:38;;;;;;;8.38;4.88;;;12.00;99.90;;;;;;5096556;28;20027;-82
2022/05/08 06:39:04;;;;;;;4.25;3.38;;;12.10;99.90;;;;;;5096645;28;20028;-82
2022/05/08 06:41:30;;;;;;;6.07;3.88;;;12.10;99.90;;;;;;5114617;28;20030;-82
2022/05/08 06:43:55;;;;;;;5.90;4.18;;;12.20;99.90;;;;;;5096414;28;20032;-82
2022/05/08 06:46:21;;;;;;;9.20;4.82;;;12.20;99.90;;;;;;5114679;28;20422;-82
2022/05/08 06:48:48;;;;;;;6.15;3.72;;;12.30;99.90;;;;;;5117142;28;20446;-82
2022/05/08 06:51:14;;;;;;;4.03;2.88;;;12.30;99.90;;;;;;5114645;28;20026;-82
2022/05/08 06:53:42;;;;;;;3.80;3.13;;;12.40;99.90;;;;;;5114276;28;20094;-82
2022/05/08 06:56:08;;;;;;;5.65;3.17;;;12.40;99.90;;;;;;5114175;28;20054;-82
2022/05/08 07:01:34;;;;;;;3.28;2.40;;;12.50;99.90;;;;;;5096021;28;20536;-82
2022/05/08 07:01:34;;;;;;;4.43;2.95;;;12.60;99.90;;;;;;5114197;28;20024;-82
2022/05/08 07:04:02;;;;;;;4.10;2.75;;;12.60;99.90;;;;;;5114257;28;20023;-81
2022/05/08 07:06:28;;;;;;;4.05;2.85;;;12.70;99.90;;;;;;5114244;28;20023;-82
2022/05/08 07:08:54;;;;;;;5.07;3.10;;;12.70;99.90;;;;;;5095874;28;20030;-81
2022/05/08 07:11:19;;;;;;;3.53;2.33;;;12.70;99.90;;;;;;5114081;28;20035;-82
2022/05/08 07:13:45;;;;;;;4.55;2.55;;;12.70;99.90;;;;;;5114364;28;20047;-81
2022/05/08 07:16:10;;;;;;;3.47;2.47;;;12.70;99.90;;;;;;5114179;28;20020;-81
2022/05/08 07:18:36;;;;;;;3.25;2.33;;;12.80;99.90;;;;;;5095801;28;20035;-81
2022/05/08 07:21:02;;;;;;;3.67;2.78;;;12.90;99.90;;;;;;5114433;28;20389;-82
2022/05/08 07:23:27;;;;;;;3.35;2.42;;;13.00;99.90;;;;;;5113889;28;20361;-82
2022/05/08 07:25:53;;;;;;;4.65;2.85;;;13.10;99.90;;;;;;5095660;28;20055;-81
2022/05/08 07:28:19;;;;;;;3.38;2.63;;;13.30;99.90;;;;;;5114396;28;20027;-81
2022/05/08 07:30:44;;;;;;;4.13;2.53;;;13.40;99.90;;;;;;5113749;28;20028;-81
2022/05/08 07:33:10;;;;;;;3.88;2.55;;;13.50;99.90;;;;;;5113868;28;20027;-81
2022/05/08 07:38:21;;;;;;;5.15;2.53;;;13.70;99.90;;;;;;5113894;28;20023;-81
2022/05/08 07:40:50;;;;;;;3.58;2.83;;;13.90;99.90;;;;;;5113830;28;20019;-81
2022/05/08 07:43:16;;;;;;;8.00;2.63;;;14.00;99.90;;;;;;5095415;28;20063;-81
2022/05/08 07:45:45;;;;;;;4.07;2.70;;;14.10;99.90;;;;;;5113733;28;20030;-81
2022/05/08 07:48:11;;;;;;;3.03;2.13;;;14.20;99.90;;;;;;5114296;28;20371;-81
2022/05/08 07:50:37;;;;;;;3.15;2.00;;;14.40;99.90;;;;;;5114139;28;20020;-81
2022/05/08 07:53:03;;;;;;;3.08;2.10;;;14.50;99.90;;;;;;5113646;28;20415;-81
2022/05/08 07:55:28;;;;;;;2.50;1.90;;;14.70;99.90;;;;;;5113558;28;20024;-82
2022/05/08 07:57:54;;;;;;;4.30;1.80;;;14.80;99.90;;;;;;5095459;28;20030;-81
2022/05/08 08:00:20;;;;;;;2.10;1.45;;;14.90;99.90;;;;;;5097275;28;20091;-82
2022/05/08 08:02:45;;;;;;;2.63;1.80;;;15.10;99.90;;;;;;5099647;28;20030;-82
2022/05/08 08:05:11;;;;;;;2.95;1.80;;;15.20;99.90;;;;;;5117504;28;20019;-82
2022/05/08 08:07:37;;;;;;;3.78;1.40;;;15.30;99.90;;;;;;5099539;28;20024;-82
2022/05/08 08:10:04;;;;;;;2.10;1.48;;;15.50;99.90;;;;;;5117495;28;20028;-82
2022/05/08 08:12:31;;;;;;;2.58;1.33;;;15.60;99.90;;;;;;5117364;28;20051;-82
2022/05/08 08:14:56;;;;;;;3.20;1.23;;;15.70;99.90;;;;;;5117783;28;20035;-82
2022/05/08 08:17:23;;;;;;;2.38;1.52;;;15.70;99.90;;;;;;5117342;28;20020;-82
2022/05/08 08:19:48;;;;;;;2.33;1.60;;;15.70;99.90;;;;;;5117347;28;20121;-82
2022/05/08 08:22:14;;;;;;;2.00;1.42;;;15.60;99.90;;;;;;5117617;28;20387;-82
2022/05/08 08:24:40;;;;;;;3.42;2.42;;;15.50;99.90;;;;;;5099423;28;20091;-82
2022/05/08 08:27:07;;;;;;;3.05;1.70;;;15.40;99.90;;;;;;5118399;28;20039;-82
2022/05/08 08:29:33;;;;;;;3.25;1.50;;;15.40;99.90;;;;;;5118014;28;20034;-82
2022/05/08 08:31:59;;;;;;;2.78;1.55;;;15.40;99.90;;;;;;5117363;28;20405;-82
2022/05/08 08:34:26;;;;;;;2.50;1.50;;;15.30;99.90;;;;;;5117042;28;20026;-82
2022/05/08 08:36:52;;;;;;;1.70;1.13;;;15.30;99.90;;;;;;5116983;28;20491;-82
2022/05/08 08:39:18;;;;;;;2.78;1.60;;;15.30;99.90;;;;;;5098743;28;20027;-82
2022/05/08 08:41:52;;;;;;;2.60;1.50;;;15.30;99.90;;;;;;5097777;28;20031;-83
2022/05/08 08:49:58;;;;;;;2.00;1.40;;;15.10;99.90;;;;;;5116947;28;20526;-82
2022/05/08 08:52:27;;;;;;;1.83;1.20;;;15.10;99.90;;;;;;5116780;28;20024;-83
2022/05/08 08:54:52;;;;;;;1.70;1.20;;;15.10;99.90;;;;;;5116712;28;20069;-82
2022/05/08 08:57:18;;;;;;;2.85;1.58;;;15.10;99.90;;;;;;5116515;28;20027;-82
2022/05/08 08:59:44;;;;;;;2.42;1.77;;;15.10;99.90;;;;;;5116501;28;20023;-82
2022/05/08 09:02:16;;;;;;;2.47;1.80;;;15.10;99.90;;;;;;5116776;28;20077;-82
2022/05/08 09:04:44;;;;;;;3.45;2.17;;;15.10;99.90;;;;;;5116363;28;20103;-83
2022/05/08 09:07:44;;;;;;;3.95;1.90;;;15.10;99.90;;;;;;5116435;28;20076;-83
2022/05/08 09:10:20;;;;;;;4.38;2.20;;;15.20;99.90;;;;;;5065584;28;20466;-83
2022/05/08 09:12:52;;;;;;;3.17;1.80;;;15.30;99.90;;;;;;5115876;28;20023;-83
2022/05/08 09:15:25;;;;;;;3.92;2.00;;;15.30;99.90;;;;;;5116598;28;20480;-83
2022/05/08 09:18:10;;;;;;;5.50;1.70;;;15.30;99.90;;;;;;5116581;28;20144;-83
2022/05/08 09:20:35;;;;;;;2.22;1.60;;;15.50;99.90;;;;;;5098330;28;20055;-83
2022/05/08 09:23:20;;;;;;;2.75;1.50;;;15.60;99.90;;;;;;5116325;28;20403;-83
2022/05/08 09:25:50;;;;;;;2.42;1.60;;;15.70;99.90;;;;;;5097991;28;20016;-83
2022/05/08 09:28:18;;;;;;;2.25;1.33;;;15.80;99.90;;;;;;5116288;28;20387;-83
2022/05/08 09:31:03;;;;;;;2.08;1.35;;;15.90;99.90;;;;;;5097943;28;20479;-83
2022/05/08 09:33:40;;;;;;;2.33;1.50;;;15.90;99.90;;;;;;5125832;22;20372;-82
2022/05/08 09:36:11;;;;;;;1.83;1.40;;;15.90;99.90;;;;;;5055072;28;20483;-81
2022/05/08 09:38:52;;;;;;;1.80;1.30;;;15.90;99.90;;;;;;5075290;28;20024;-82
2022/05/08 09:41:28;;;;;;;2.33;1.52;;;15.90;99.90;;;;;;5070837;28;20037;-82
2022/05/08 09:43:55;;;;;;;2.88;1.70;;;15.90;99.90;;;;;;5074469;28;20016;-81
2022/05/08 09:46:21;;;;;;;2.58;1.90;;;15.90;99.90;;;;;;5075166;28;20032;-81
2022/05/08 09:48:48;;;;;;;2.10;1.38;;;16.00;99.90;;;;;;5069924;28;20488;-81
2022/05/08 09:51:16;;;;;;;2.60;1.58;;;16.00;99.90;;;;;;5085447;28;20064;-81
2022/05/08 09:53:44;;;;;;;2.45;1.52;;;16.10;99.90;;;;;;5075492;28;20025;-81
2022/05/08 09:56:12;;;;;;;3.42;1.80;;;16.00;99.90;;;;;;5055190;28;20420;-81
2022/05/08 09:58:47;;;;;;;2.17;1.48;;;16.00;99.90;;;;;;5083101;28;20430;-82
2022/05/08 10:01:14;;;;;;;2.20;1.40;;;16.00;99.90;;;;;;5058339;28;20463;-82
2022/05/08 10:03:43;;;;;;;1.88;1.35;;;16.10;99.90;;;;;;5078597;28;20032;-79
2022/05/08 10:06:09;;;;;;;2.75;1.95;;;16.10;99.90;;;;;;5078203;28;20016;-80
2022/05/08 10:08:39;;;;;;;2.88;1.92;;;16.10;99.90;;;;;;5075551;28;20544;-80
2022/05/08 10:14:03;;;;;;;2.75;1.90;;;16.20;99.90;;;;;;5076358;28;20028;-80
2022/05/08 10:16:55;;;;;;;5.40;2.90;;;16.20;99.90;;;;;;5075927;28;20028;-79
2022/05/08 10:19:28;;;;;;;2.60;1.90;;;16.10;99.90;;;;;;5078159;28;20089;-79
2022/05/08 10:21:57;;;;;;;2.85;2.10;;;16.00;99.90;;;;;;5077557;28;20024;-79
2022/05/08 10:24:30;;;;;;;3.95;2.72;;;16.00;99.90;;;;;;5076514;28;20044;-78
2022/05/08 10:27:14;;;;;;;4.15;2.60;;;16.10;99.90;;;;;;5093988;28;20024;-79
2022/05/08 10:29:41;;;;;;;3.92;2.80;;;16.10;99.90;;;;;;5095664;28;20070;-79
2022/05/08 10:32:10;;;;;;;5.15;3.10;;;16.00;99.90;;;;;;5092146;28;20088;-79
2022/05/08 10:34:39;;;;;;;7.88;3.42;;;16.10;99.90;;;;;;5091014;28;20495;-79
2022/05/08 10:37:13;;;;;;;3.58;2.80;;;16.10;99.90;;;;;;5074542;28;20119;-79
2022/05/08 10:39:43;;;;;;;4.78;3.20;;;16.10;99.90;;;;;;5076458;28;20121;-79
2022/05/08 10:42:44;;;;;;;4.22;2.85;;;16.10;99.90;;;;;;5059187;28;20032;-79
2022/05/08 10:45:30;;;;;;;4.38;3.25;;;16.10;99.90;;;;;;5044476;28;20037;-79
2022/05/08 10:48:08;;;;;;;6.30;3.85;;;16.20;99.90;;;;;;5049574;28;20056;-79
2022/05/08 10:50:35;;;;;;;4.05;3.30;;;16.30;99.90;;;;;;5057338;28;20025;-79
2022/05/08 10:53:00;;;;;;;5.38;4.05;;;16.40;99.90;;;;;;5072473;28;20046;-79
2022/05/08 10:55:27;;;;;;;3.78;2.95;;;16.80;99.90;;;;;;5074941;28;20032;-79
2022/05/08 10:57:54;;;;;;;4.57;2.78;;;16.90;99.90;;;;;;5058811;28;20021;-79
2022/05/08 11:00:24;;;;;;;3.50;2.42;;;17.00;99.90;;;;;;5072948;28;20383;-79
2022/05/08 11:02:55;;;;;;;2.80;2.38;;;17.10;99.60;;;;;;5076690;28;20031;-79
2022/05/08 11:05:34;;;;;;;3.90;3.08;;;17.10;99.40;;;;;;5059160;28;20131;-79
2022/05/08 11:08:11;;;;;;;5.22;3.17;;;17.20;99.00;;;;;;5076744;28;20028;-79
2022/05/08 11:10:39;;;;;;;5.70;2.83;;;17.10;99.90;;;;;;5076654;28;20383;-79
2022/05/08 11:13:13;;;;;;;3.90;2.80;;;17.30;99.90;;;;;;5075745;28;20021;-79
2022/05/08 11:15:46;;;;;;;6.57;2.63;;;17.40;98.50;;;;;;5076479;28;20031;-79
2022/05/08 11:18:22;;;;;;;3.38;2.50;;;17.40;99.10;;;;;;5075519;28;20031;-79
2022/05/08 11:21:10;;;;;;;3.88;2.30;;;17.30;98.90;;;;;;5057988;28;20032;-79
2022/05/08 11:23:41;;;;;;;3.05;2.30;;;17.50;98.30;;;;;;5057680;28;20035;-79
2022/05/08 11:26:12;;;;;;;2.97;2.38;;;17.70;97.40;;;;;;5075539;28;20025;-79
2022/05/08 11:28:53;;;;;;;3.70;2.17;;;17.80;98.70;;;;;;5057617;28;20500;-79
2022/05/08 11:31:19;;;;;;;3.78;2.08;;;18.00;98.30;;;;;;5076939;28;20039;-79
2022/05/08 11:36:35;;;;;;;2.17;1.42;;;18.20;95.60;;;;;;5074089;28;20031;-79
2022/05/08 11:39:04;;;;;;;4.10;1.80;;;18.20;94.70;;;;;;5070940;28;20021;-79
2022/05/08 11:41:35;;;;;;;3.60;1.90;;;18.30;94.50;;;;;;5056009;28;20040;-80
2022/05/08 11:44:15;;;;;;;3.05;2.22;;;18.30;94.70;;;;;;5073092;28;20509;-80
2022/05/08 11:46:57;;;;;;;2.83;2.10;;;18.30;94.70;;;;;;5055310;28;20062;-79
2022/05/08 11:49:27;;;;;;;3.40;1.52;;;18.40;94.80;;;;;;5071378;28;20384;-79
2022/05/08 11:52:00;;;;;;;3.85;2.53;;;18.50;92.80;;;;;;5055179;28;20029;-79
2022/05/08 11:54:27;;;;;;;2.88;2.10;;;18.50;94.10;;;;;;5072172;28;20024;-79
2022/05/08 11:57:13;;;;;;;4.20;2.50;;;18.50;94.00;;;;;;5071998;28;20024;-79
2022/05/08 11:59:39;;;;;;;3.60;1.70;;;18.50;94.70;;;;;;5050552;28;20127;-79
2022/05/08 12:02:05;;;;;;;3.20;2.33;;;18.60;92.50;;;;;;5072534;28;20035;-80
2022/05/08 12:04:33;;;;;;;2.42;1.80;;;18.60;94.90;;;;;;5072365;28;20028;-79
2022/05/08 12:07:02;;;;;;;3.30;2.45;;;18.60;94.20;;;;;;5071448;28;20029;-79
2022/05/08 12:09:52;;;;;;;3.13;2.20;;;18.60;93.50;;;;;;5070788;28;20039;-80
2022/05/08 12:12:33;;;;;;;3.27;2.13;;;18.60;93.80;;;;;;5060020;28;20056;-79
2022/05/08 12:15:01;;;;;;;3.67;2.60;;;18.50;91.80;;;;;;5070951;28;20028;-79
2022/05/08 12:17:27;;;;;;;3.30;2.30;;;18.40;93.80;;;;;;5053755;28;20632;-79
2022/05/08 12:19:58;;;;;;;3.42;2.00;;;18.40;93.50;;;;;;5060332;28;20388;-79
2022/05/08 12:22:28;;;;;;;3.75;1.92;;;18.40;93.40;;;;;;5054814;28;20029;-78
2022/05/08 12:24:55;;;;;;;3.83;2.03;;;18.50;94.50;;;;;;5074119;28;20369;-79
2022/05/08 12:27:21;;;;;;;2.60;1.80;;;18.70;92.70;;;;;;5070240;28;20111;-79
2022/05/08 12:29:48;;;;;;;3.90;2.42;;;18.70;91.90;;;;;;5073837;28;20463;-79
2022/05/08 12:32:15;;;;;;;2.45;1.83;;;18.80;92.90;;;;;;5074535;28;20017;-79
2022/05/08 12:34:42;;;;;;;3.67;2.25;;;18.90;91.00;;;;;;5072708;28;20560;-81
2022/05/08 12:37:09;;;;;;;3.88;2.10;;;18.80;91.60;;;;;;5072239;28;20056;-81
2022/05/08 12:39:35;;;;;;;2.85;1.90;;;18.80;91.10;;;;;;5072676;28;20035;-82
2022/05/08 12:42:01;;;;;;;3.38;1.90;;;18.90;90.40;;;;;;5073213;28;20055;-81
2022/05/08 12:44:26;;;;;;;3.03;2.20;;;19.00;91.40;;;;;;5054934;28;20457;-81
2022/05/08 12:46:52;;;;;;;5.95;2.10;;;19.10;91.60;;;;;;5074968;28;20032;-81
2022/05/08 12:49:18;;;;;;;2.97;2.22;;;19.10;90.60;;;;;;5076492;28;20029;-81
2022/05/08 12:51:45;;;;;;;3.03;2.10;;;19.00;91.60;;;;;;5075687;28;20036;-81
2022/05/08 12:54:11;;;;;;;3.00;2.22;;;19.00;91.00;;;;;;5058304;28;20027;-81
2022/05/08 12:56:37;;;;;;;4.10;2.05;;;19.00;91.00;;;;;;5076391;28;20012;-81
2022/05/08 13:01:49;;;;;;;3.75;2.63;;;19.20;91.00;;;;;;5076132;28;20074;-82
2022/05/08 13:04:15;;;;;;;4.40;2.30;;;19.00;90.30;;;;;;5079369;28;20042;-81
2022/05/08 13:06:42;;;;;;;3.65;2.67;;;18.90;87.40;;;;;;5075430;28;20021;-80
2022/05/08 13:09:08;;;;;;;3.55;2.63;;;18.90;91.10;;;;;;5076127;28;20033;-80
2022/05/08 13:11:35;;;;;;;4.95;3.15;;;18.80;91.50;;;;;;5076037;28;20021;-80
2022/05/08 13:14:02;;;;;;;3.60;2.83;;;18.70;91.60;;;;;;5075986;28;20116;-80
2022/05/08 13:16:28;;;;;;;4.70;3.10;;;18.60;91.80;;;;;;5076058;28;20399;-80
2022/05/08 13:18:54;;;;;;;4.97;3.90;;;18.40;92.60;;;;;;5076078;28;20468;-77
2022/05/08 13:21:20;;;;;;;5.20;3.70;;;18.20;93.90;;;;;;5075103;28;20029;-77